sensor_id;sensor_type;location;lat;lon;timestamp;temperature;humidity
26230;DHT22;13960;50.860;4.352;2022-08-18T00:00:31;20.40;99.90
26230;DHT22;13960;50.860;4.352;2022-08-18T00:03:04;20.20;99.90
26230;DHT22;13960;50.860;4.352;2022-08-18T00:05:30;20.40;99.90
26230;DHT22;13960;50.860;4.352;2022-08-18T00:07:57;20.60;99.90
26230;DHT22;13960;50.860;4.352;2022-08-18T00:10:22;20.90;99.90
26230;DHT22;13960;50.860;4.352;2022-08-18T00:12:48;21.10;99.90
26230;DHT22;13960;50.860;4.352;2022-08-18T00:15:14;21.20;99.90
26230;DHT22;13960;50.860;4.352;2022-08-18T00:17:40;21.20;99.90
26230;DHT22;13960;50.860;4.352;2022-08-18T00:20:06;21.10;99.90
26230;DHT22;13960;50.860;4.352;2022-08-18T00:22:33;21.00;99.90
26230;DHT22;13960;50.860;4.352;2022-08-18T00:24:58;21.10;99.90
26230;DHT22;13960;50.860;4.352;2022-08-18T00:27:25;21.20;99.90
26230;DHT22;13960;50.860;4.352;2022-08-18T00:29:52;21.20;99.90
26230;DHT22;13960;50.860;4.352;2022-08-18T00:32:19;21.30;99.90
26230;DHT22;13960;50.860;4.352;2022-08-18T00:34:45;21.30;99.90
26230;DHT22;13960;50.860;4.352;2022-08-18T00:37:10;21.30;99.90
26230;DHT22;13960;50.860;4.352;2022-08-18T00:39:36;21.40;99.90
26230;DHT22;13960;50.860;4.352;2022-08-18T00:42:12;21.40;99.90
26230;DHT22;13960;50.860;4.352;2022-08-18T00:44:37;21.50;99.90
26230;DHT22;13960;50.860;4.352;2022-08-18T00:47:03;21.60;99.90
26230;DHT22;13960;50.860;4.352;2022-08-18T00:49:29;21.50;99.90
26230;DHT22;13960;50.860;4.352;2022-08-18T00:51:54;21.60;99.90
26230;DHT22;13960;50.860;4.352;2022-08-18T00:54:25;21.70;99.90
26230;DHT22;13960;50.860;4.352;2022-08-18T00:56:52;21.60;99.90
26230;DHT22;13960;50.860;4.352;2022-08-18T00:59:25;21.70;99.90
26230;DHT22;13960;50.860;4.352;2022-08-18T01:01:53;21.60;99.90
26230;DHT22;13960;50.860;4.352;2022-08-18T01:04:25;21.70;99.90
26230;DHT22;13960;50.860;4.352;2022-08-18T01:06:53;21.70;99.90
26230;DHT22;13960;50.860;4.352;2022-08-18T01:09:19;21.70;99.90
26230;DHT22;13960;50.860;4.352;2022-08-18T01:11:44;21.80;99.90
26230;DHT22;13960;50.860;4.352;2022-08-18T01:14:11;21.80;99.90
26230;DHT22;13960;50.860;4.352;2022-08-18T01:16:40;21.80;99.90
26230;DHT22;13960;50.860;4.352;2022-08-18T01:19:25;21.90;99.90
26230;DHT22;13960;50.860;4.352;2022-08-18T01:24:47;22.10;99.90
26230;DHT22;13960;50.860;4.352;2022-08-18T01:27:32;22.10;99.90
26230;DHT22;13960;50.860;4.352;2022-08-18T01:30:02;22.00;99.90
26230;DHT22;13960;50.860;4.352;2022-08-18T01:32:28;22.00;99.90
26230;DHT22;13960;50.860;4.352;2022-08-18T01:34:54;21.90;99.90
26230;DHT22;13960;50.860;4.352;2022-08-18T01:37:21;21.80;99.90
26230;DHT22;13960;50.860;4.352;2022-08-18T01:39:47;21.10;99.90
26230;DHT22;13960;50.860;4.352;2022-08-18T01:42:13;20.60;99.90
26230;DHT22;13960;50.860;4.352;2022-08-18T01:44:41;20.40;99.90
26230;DHT22;13960;50.860;4.352;2022-08-18T01:47:07;20.60;99.90
26230;DHT22;13960;50.860;4.352;2022-08-18T01:49:35;20.90;99.90
26230;DHT22;13960;50.860;4.352;2022-08-18T01:52:00;21.20;99.90
26230;DHT22;13960;50.860;4.352;2022-08-18T01:54:26;21.40;99.90
26230;DHT22;13960;50.860;4.352;2022-08-18T01:56:55;21.60;99.90
26230;DHT22;13960;50.860;4.352;2022-08-18T01:59:21;21.60;99.90
26230;DHT22;13960;50.860;4.352;2022-08-18T02:01:47;21.70;99.90
26230;DHT22;13960;50.860;4.352;2022-08-18T02:04:13;21.70;99.90
26230;DHT22;13960;50.860;4.352;2022-08-18T02:06:40;21.60;99.90
26230;DHT22;13960;50.860;4.352;2022-08-18T02:09:05;21.40;99.90
26230;DHT22;13960;50.860;4.352;2022-08-18T02:11:31;21.40;99.90
26230;DHT22;13960;50.860;4.352;2022-08-18T02:13:57;21.40;99.90
26230;DHT22;13960;50.860;4.352;2022-08-18T02:16:22;21.40;99.90
26230;DHT22;13960;50.860;4.352;2022-08-18T02:18:48;21.40;99.90
26230;DHT22;13960;50.860;4.352;2022-08-18T02:21:15;21.50;99.90
26230;DHT22;13960;50.860;4.352;2022-08-18T02:23:42;21.60;99.90
26230;DHT22;13960;50.860;4.352;2022-08-18T02:26:08;21.60;99.90
26230;DHT22;13960;50.860;4.352;2022-08-18T02:28:34;21.70;99.90
26230;DHT22;13960;50.860;4.352;2022-08-18T02:31:06;21.80;99.90
26230;DHT22;13960;50.860;4.352;2022-08-18T02:33:32;21.90;99.90
26230;DHT22;13960;50.860;4.352;2022-08-18T02:35:58;21.80;99.90
26230;DHT22;13960;50.860;4.352;2022-08-18T02:38:24;21.60;99.90
26230;DHT22;13960;50.860;4.352;2022-08-18T02:40:53;21.50;99.90
26230;DHT22;13960;50.860;4.352;2022-08-18T02:43:19;21.50;99.90
26230;DHT22;13960;50.860;4.352;2022-08-18T02:45:44;21.50;99.90
26230;DHT22;13960;50.860;4.352;2022-08-18T02:48:10;21.70;99.90
26230;DHT22;13960;50.860;4.352;2022-08-18T02:50:36;21.70;99.90
26230;DHT22;13960;50.860;4.352;2022-08-18T02:53:09;21.70;99.90
26230;DHT22;13960;50.860;4.352;2022-08-18T02:55:37;21.80;99.90
26230;DHT22;13960;50.860;4.352;2022-08-18T02:58:02;21.80;99.90
26230;DHT22;13960;50.860;4.352;2022-08-18T03:00:28;21.80;99.90
26230;DHT22;13960;50.860;4.352;2022-08-18T03:02:54;21.70;99.90
26230;DHT22;13960;50.860;4.352;2022-08-18T03:05:19;21.40;99.90
26230;DHT22;13960;50.860;4.352;2022-08-18T03:07:45;21.30;99.90
26230;DHT22;13960;50.860;4.352;2022-08-18T03:10:11;21.30;99.90
26230;DHT22;13960;50.860;4.352;2022-08-18T03:12:40;21.40;99.90
26230;DHT22;13960;50.860;4.352;2022-08-18T03:15:05;21.30;99.90
26230;DHT22;13960;50.860;4.352;2022-08-18T03:17:33;21.30;99.90
26230;DHT22;13960;50.860;4.352;2022-08-18T03:19:59;21.00;99.90
26230;DHT22;13960;50.860;4.352;2022-08-18T03:22:25;20.80;99.90
26230;DHT22;13960;50.860;4.352;2022-08-18T03:24:50;20.70;99.90
26230;DHT22;13960;50.860;4.352;2022-08-18T03:27:16;20.50;99.90
26230;DHT22;13960;50.860;4.352;2022-08-18T03:29:41;20.50;99.90
26230;DHT22;13960;50.860;4.352;2022-08-18T03:32:08;20.60;99.90
26230;DHT22;13960;50.860;4.352;2022-08-18T03:34:34;20.70;99.90
26230;DHT22;13960;50.860;4.352;2022-08-18T03:37:00;20.80;99.90
26230;DHT22;13960;50.860;4.352;2022-08-18T03:39:26;20.70;99.90
26230;DHT22;13960;50.860;4.352;2022-08-18T03:41:52;20.80;99.90
26230;DHT22;13960;50.860;4.352;2022-08-18T03:44:22;20.90;99.90
26230;DHT22;13960;50.860;4.352;2022-08-18T03:46:48;20.80;99.90
26230;DHT22;13960;50.860;4.352;2022-08-18T03:49:15;20.70;99.90
26230;DHT22;13960;50.860;4.352;2022-08-18T03:51:42;20.60;99.90
26230;DHT22;13960;50.860;4.352;2022-08-18T03:54:08;20.70;99.90
26230;DHT22;13960;50.860;4.352;2022-08-18T03:56:35;20.70;99.90
26230;DHT22;13960;50.860;4.352;2022-08-18T03:59:03;20.50;99.90
26230;DHT22;13960;50.860;4.352;2022-08-18T04:01:31;20.60;99.90
26230;DHT22;13960;50.860;4.352;2022-08-18T04:03:58;20.80;99.90
26230;DHT22;13960;50.860;4.352;2022-08-18T04:06:25;21.10;99.90
26230;DHT22;13960;50.860;4.352;2022-08-18T04:08:52;21.20;99.90
26230;DHT22;13960;50.860;4.352;2022-08-18T04:11:17;21.30;99.90
26230;DHT22;13960;50.860;4.352;2022-08-18T04:13:43;21.40;99.90
26230;DHT22;13960;50.860;4.352;2022-08-18T04:16:08;21.60;99.90
26230;DHT22;13960;50.860;4.352;2022-08-18T04:18:34;21.60;99.90
26230;DHT22;13960;50.860;4.352;2022-08-18T04:21:00;21.60;99.90
26230;DHT22;13960;50.860;4.352;2022-08-18T04:23:26;21.70;99.90
26230;DHT22;13960;50.860;4.352;2022-08-18T04:25:55;21.70;99.90
26230;DHT22;13960;50.860;4.352;2022-08-18T04:28:22;21.70;99.90
26230;DHT22;13960;50.860;4.352;2022-08-18T04:30:47;21.50;99.90
26230;DHT22;13960;50.860;4.352;2022-08-18T04:33:13;21.60;99.90
26230;DHT22;13960;50.860;4.352;2022-08-18T04:35:38;21.70;99.90
26230;DHT22;13960;50.860;4.352;2022-08-18T04:38:04;21.70;99.90
26230;DHT22;13960;50.860;4.352;2022-08-18T04:40:31;21.80;99.90
26230;DHT22;13960;50.860;4.352;2022-08-18T04:42:59;21.90;99.90
26230;DHT22;13960;50.860;4.352;2022-08-18T04:45:26;21.80;99.90
26230;DHT22;13960;50.860;4.352;2022-08-18T04:47:51;21.70;99.90
26230;DHT22;13960;50.860;4.352;2022-08-18T04:50:17;21.70;99.90
26230;DHT22;13960;50.860;4.352;2022-08-18T04:52:43;21.60;99.90
26230;DHT22;13960;50.860;4.352;2022-08-18T04:55:28;21.60;99.90
26230;DHT22;13960;50.860;4.352;2022-08-18T04:57:54;21.20;99.90
26230;DHT22;13960;50.860;4.352;2022-08-18T05:00:19;20.90;99.90
26230;DHT22;13960;50.860;4.352;2022-08-18T05:02:45;20.70;99.90
26230;DHT22;13960;50.860;4.352;2022-08-18T05:05:11;20.80;99.90
26230;DHT22;13960;50.860;4.352;2022-08-18T05:07:41;20.90;99.90
26230;DHT22;13960;50.860;4.352;2022-08-18T05:10:09;20.90;99.90
26230;DHT22;13960;50.860;4.352;2022-08-18T05:12:36;20.80;99.90
26230;DHT22;13960;50.860;4.352;2022-08-18T05:15:02;20.70;99.90
26230;DHT22;13960;50.860;4.352;2022-08-18T05:17:28;20.90;99.90
26230;DHT22;13960;50.860;4.352;2022-08-18T05:19:53;20.80;99.90
26230;DHT22;13960;50.860;4.352;2022-08-18T05:22:19;20.90;99.90
26230;DHT22;13960;50.860;4.352;2022-08-18T05:24:45;21.10;99.90
26230;DHT22;13960;50.860;4.352;2022-08-18T05:27:10;21.10;99.90
26230;DHT22;13960;50.860;4.352;2022-08-18T05:29:37;21.40;99.90
26230;DHT22;13960;50.860;4.352;2022-08-18T05:32:03;21.50;99.90
26230;DHT22;13960;50.860;4.352;2022-08-18T05:34:32;21.60;99.90
26230;DHT22;13960;50.860;4.352;2022-08-18T05:40:15;21.70;99.90
26230;DHT22;13960;50.860;4.352;2022-08-18T05:42:35;21.60;99.90
26230;DHT22;13960;50.860;4.352;2022-08-18T05:45:02;21.60;99.90
26230;DHT22;13960;50.860;4.352;2022-08-18T05:47:29;21.60;99.90
26230;DHT22;13960;50.860;4.352;2022-08-18T05:49:57;21.50;99.90
26230;DHT22;13960;50.860;4.352;2022-08-18T05:52:37;21.50;99.90
26230;DHT22;13960;50.860;4.352;2022-08-18T05:55:06;21.50;99.90
26230;DHT22;13960;50.860;4.352;2022-08-18T05:57:54;21.20;99.90
26230;DHT22;13960;50.860;4.352;2022-08-18T06:00:21;20.90;99.90
26230;DHT22;13960;50.860;4.352;2022-08-18T06:02:58;20.80;99.90
26230;DHT22;13960;50.860;4.352;2022-08-18T06:05:30;20.80;99.90
26230;DHT22;13960;50.860;4.352;2022-08-18T06:10:22;20.90;99.90
26230;DHT22;13960;50.860;4.352;2022-08-18T06:12:49;20.80;99.90
26230;DHT22;13960;50.860;4.352;2022-08-18T06:15:41;20.80;99.90
26230;DHT22;13960;50.860;4.352;2022-08-18T06:18:15;21.00;99.90
26230;DHT22;13960;50.860;4.352;2022-08-18T06:21:04;21.20;99.90
26230;DHT22;13960;50.860;4.352;2022-08-18T06:23:38;21.20;99.90
26230;DHT22;13960;50.860;4.352;2022-08-18T06:26:14;21.00;99.90
26230;DHT22;13960;50.860;4.352;2022-08-18T06:31:31;20.80;99.90
26230;DHT22;13960;50.860;4.352;2022-08-18T06:37:10;20.90;99.90
26230;DHT22;13960;50.860;4.352;2022-08-18T06:39:50;21.10;99.90
26230;DHT22;13960;50.860;4.352;2022-08-18T06:42:08;20.70;99.90
26230;DHT22;13960;50.860;4.352;2022-08-18T06:47:06;20.70;99.90
26230;DHT22;13960;50.860;4.352;2022-08-18T06:49:35;20.80;99.90
26230;DHT22;13960;50.860;4.352;2022-08-18T06:52:19;20.50;99.90
26230;DHT22;13960;50.860;4.352;2022-08-18T06:54:44;20.40;99.90
26230;DHT22;13960;50.860;4.352;2022-08-18T06:57:21;20.70;99.90
26230;DHT22;13960;50.860;4.352;2022-08-18T06:59:59;20.90;99.90
26230;DHT22;13960;50.860;4.352;2022-08-18T07:02:39;21.10;99.90
26230;DHT22;13960;50.860;4.352;2022-08-18T07:07:40;21.50;99.90
26230;DHT22;13960;50.860;4.352;2022-08-18T07:12:37;21.70;99.90
26230;DHT22;13960;50.860;4.352;2022-08-18T07:15:03;21.80;99.90
26230;DHT22;13960;50.860;4.352;2022-08-18T07:17:32;22.00;99.90
26230;DHT22;13960;50.860;4.352;2022-08-18T07:20:14;22.00;99.90
26230;DHT22;13960;50.860;4.352;2022-08-18T07:25:18;22.10;99.90
26230;DHT22;13960;50.860;4.352;2022-08-18T07:27:47;22.20;99.90
26230;DHT22;13960;50.860;4.352;2022-08-18T07:33:14;22.20;99.90
26230;DHT22;13960;50.860;4.352;2022-08-18T07:35:39;22.20;99.90
26230;DHT22;13960;50.860;4.352;2022-08-18T07:43:20;22.20;99.90
26230;DHT22;13960;50.860;4.352;2022-08-18T07:45:46;22.30;99.90
26230;DHT22;13960;50.860;4.352;2022-08-18T07:48:14;22.50;99.90
26230;DHT22;13960;50.860;4.352;2022-08-18T07:50:45;22.10;99.90
26230;DHT22;13960;50.860;4.352;2022-08-18T07:55:51;22.00;99.90
26230;DHT22;13960;50.860;4.352;2022-08-18T08:00:59;22.20;99.90
26230;DHT22;13960;50.860;4.352;2022-08-18T08:08:51;22.60;99.90
26230;DHT22;13960;50.860;4.352;2022-08-18T08:14:11;22.50;99.90
26230;DHT22;13960;50.860;4.352;2022-08-18T08:16:52;22.20;99.90
26230;DHT22;13960;50.860;4.352;2022-08-18T08:27:01;22.30;99.90
26230;DHT22;13960;50.860;4.352;2022-08-18T08:29:38;22.60;99.90
26230;DHT22;13960;50.860;4.352;2022-08-18T08:35:05;22.90;99.90
26230;DHT22;13960;50.860;4.352;2022-08-18T08:39:59;23.00;99.90
26230;DHT22;13960;50.860;4.352;2022-08-18T08:44:55;22.90;99.90
26230;DHT22;13960;50.860;4.352;2022-08-18T08:49:56;23.00;99.90
26230;DHT22;13960;50.860;4.352;2022-08-18T08:52:34;22.60;99.90
26230;DHT22;13960;50.860;4.352;2022-08-18T09:00:25;22.60;99.90
26230;DHT22;13960;50.860;4.352;2022-08-18T09:05:17;22.80;99.90
26230;DHT22;13960;50.860;4.352;2022-08-18T09:07:49;22.90;99.90
26230;DHT22;13960;50.860;4.352;2022-08-18T09:23:56;22.80;99.90
26230;DHT22;13960;50.860;4.352;2022-08-18T09:29:48;22.70;99.90
26230;DHT22;13960;50.860;4.352;2022-08-18T09:31:48;22.80;99.90
26230;DHT22;13960;50.860;4.352;2022-08-18T09:39:30;23.30;99.90
26230;DHT22;13960;50.860;4.352;2022-08-18T09:42:16;23.50;99.90
26230;DHT22;13960;50.860;4.352;2022-08-18T09:47:11;23.70;99.90
26230;DHT22;13960;50.860;4.352;2022-08-18T09:49:44;23.70;99.90
26230;DHT22;13960;50.860;4.352;2022-08-18T09:54:51;23.60;99.90
26230;DHT22;13960;50.860;4.352;2022-08-18T09:57:18;23.80;99.90
26230;DHT22;13960;50.860;4.352;2022-08-18T10:02:11;24.10;99.90
26230;DHT22;13960;50.860;4.352;2022-08-18T10:04:42;24.20;99.90
26230;DHT22;13960;50.860;4.352;2022-08-18T10:07:32;24.30;99.90
26230;DHT22;13960;50.860;4.352;2022-08-18T10:15:06;24.80;99.90
26230;DHT22;13960;50.860;4.352;2022-08-18T10:17:45;24.90;99.90
26230;DHT22;13960;50.860;4.352;2022-08-18T10:22:47;24.60;99.90
26230;DHT22;13960;50.860;4.352;2022-08-18T10:25:14;24.30;99.90
26230;DHT22;13960;50.860;4.352;2022-08-18T10:27:54;24.20;99.90
26230;DHT22;13960;50.860;4.352;2022-08-18T10:32:55;24.30;99.90
26230;DHT22;13960;50.860;4.352;2022-08-18T10:38:01;24.30;99.90
26230;DHT22;13960;50.860;4.352;2022-08-18T10:40:28;24.50;99.90
26230;DHT22;13960;50.860;4.352;2022-08-18T10:43:07;24.30;99.90
26230;DHT22;13960;50.860;4.352;2022-08-18T10:45:34;24.20;99.90
26230;DHT22;13960;50.860;4.352;2022-08-18T10:50:26;24.70;99.90
26230;DHT22;13960;50.860;4.352;2022-08-18T10:53:09;24.80;99.90
26230;DHT22;13960;50.860;4.352;2022-08-18T10:55:47;24.90;99.90
26230;DHT22;13960;50.860;4.352;2022-08-18T11:06:08;24.70;99.90
26230;DHT22;13960;50.860;4.352;2022-08-18T11:08:41;24.70;99.90
26230;DHT22;13960;50.860;4.352;2022-08-18T11:11:08;24.60;99.90
26230;DHT22;13960;50.860;4.352;2022-08-18T11:14:11;24.40;99.90
26230;DHT22;13960;50.860;4.352;2022-08-18T11:19:07;24.20;99.90
26230;DHT22;13960;50.860;4.352;2022-08-18T11:26:33;24.50;99.90
26230;DHT22;13960;50.860;4.352;2022-08-18T11:29:21;24.40;99.90
26230;DHT22;13960;50.860;4.352;2022-08-18T11:31:46;24.80;99.90
26230;DHT22;13960;50.860;4.352;2022-08-18T11:34:16;25.00;99.90
26230;DHT22;13960;50.860;4.352;2022-08-18T11:36:42;25.10;99.90
26230;DHT22;13960;50.860;4.352;2022-08-18T11:39:08;25.30;99.90
26230;DHT22;13960;50.860;4.352;2022-08-18T11:41:34;25.20;99.90
26230;DHT22;13960;50.860;4.352;2022-08-18T11:44:01;25.10;99.90
26230;DHT22;13960;50.860;4.352;2022-08-18T11:46:30;25.00;99.90
26230;DHT22;13960;50.860;4.352;2022-08-18T11:48:57;24.80;99.90
26230;DHT22;13960;50.860;4.352;2022-08-18T11:58:41;25.30;99.90
26230;DHT22;13960;50.860;4.352;2022-08-18T12:01:32;25.00;99.90
26230;DHT22;13960;50.860;4.352;2022-08-18T12:06:50;25.10;99.90
26230;DHT22;13960;50.860;4.352;2022-08-18T12:09:28;25.50;99.90
26230;DHT22;13960;50.860;4.352;2022-08-18T12:11:57;25.90;99.90
26230;DHT22;13960;50.860;4.352;2022-08-18T12:14:29;26.30;99.90
26230;DHT22;13960;50.860;4.352;2022-08-18T12:16:55;26.20;99.90
26230;DHT22;13960;50.860;4.352;2022-08-18T12:19:21;26.30;99.90
26230;DHT22;13960;50.860;4.352;2022-08-18T12:21:51;26.50;99.90
26230;DHT22;13960;50.860;4.352;2022-08-18T12:24:27;26.60;99.90
26230;DHT22;13960;50.860;4.352;2022-08-18T12:26:53;26.90;99.90
26230;DHT22;13960;50.860;4.352;2022-08-18T12:29:19;27.10;99.90
26230;DHT22;13960;50.860;4.352;2022-08-18T12:31:45;27.10;99.90
26230;DHT22;13960;50.860;4.352;2022-08-18T12:34:11;27.10;99.90
26230;DHT22;13960;50.860;4.352;2022-08-18T12:36:36;27.50;99.90
26230;DHT22;13960;50.860;4.352;2022-08-18T12:39:02;27.50;99.90
26230;DHT22;13960;50.860;4.352;2022-08-18T12:41:28;27.40;99.90
26230;DHT22;13960;50.860;4.352;2022-08-18T12:43:53;27.30;99.90
26230;DHT22;13960;50.860;4.352;2022-08-18T12:46:19;27.20;99.90
26230;DHT22;13960;50.860;4.352;2022-08-18T12:48:45;27.30;99.90
26230;DHT22;13960;50.860;4.352;2022-08-18T12:51:11;26.90;99.90
26230;DHT22;13960;50.860;4.352;2022-08-18T12:53:38;25.80;99.90
26230;DHT22;13960;50.860;4.352;2022-08-18T12:56:04;25.80;99.90
26230;DHT22;13960;50.860;4.352;2022-08-18T12:58:30;26.00;99.90
26230;DHT22;13960;50.860;4.352;2022-08-18T13:00:55;26.50;99.90
26230;DHT22;13960;50.860;4.352;2022-08-18T13:03:21;26.80;99.90
26230;DHT22;13960;50.860;4.352;2022-08-18T13:05:46;26.80;99.90
26230;DHT22;13960;50.860;4.352;2022-08-18T13:08:16;27.00;99.90
26230;DHT22;13960;50.860;4.352;2022-08-18T13:10:42;27.10;99.90
26230;DHT22;13960;50.860;4.352;2022-08-18T13:13:08;27.20;99.90
26230;DHT22;13960;50.860;4.352;2022-08-18T13:15:34;27.30;99.90
26230;DHT22;13960;50.860;4.352;2022-08-18T13:18:00;27.50;99.90
26230;DHT22;13960;50.860;4.352;2022-08-18T13:20:27;27.80;99.90
26230;DHT22;13960;50.860;4.352;2022-08-18T13:22:52;28.30;99.90
26230;DHT22;13960;50.860;4.352;2022-08-18T13:25:18;28.40;99.90
26230;DHT22;13960;50.860;4.352;2022-08-18T13:27:44;28.80;99.90
26230;DHT22;13960;50.860;4.352;2022-08-18T13:30:11;29.30;99.90
26230;DHT22;13960;50.860;4.352;2022-08-18T13:32:38;29.90;99.90
26230;DHT22;13960;50.860;4.352;2022-08-18T13:35:05;30.00;99.90
26230;DHT22;13960;50.860;4.352;2022-08-18T13:37:31;29.10;99.90
26230;DHT22;13960;50.860;4.352;2022-08-18T13:39:57;29.00;99.90
26230;DHT22;13960;50.860;4.352;2022-08-18T13:42:23;29.20;99.90
26230;DHT22;13960;50.860;4.352;2022-08-18T13:44:49;29.00;99.90
26230;DHT22;13960;50.860;4.352;2022-08-18T13:47:14;29.20;99.90
26230;DHT22;13960;50.860;4.352;2022-08-18T13:49:40;29.30;99.90
26230;DHT22;13960;50.860;4.352;2022-08-18T13:52:05;28.80;99.90
26230;DHT22;13960;50.860;4.352;2022-08-18T13:54:32;28.20;99.90
26230;DHT22;13960;50.860;4.352;2022-08-18T13:56:59;27.90;99.90
26230;DHT22;13960;50.860;4.352;2022-08-18T13:59:24;27.80;99.90
26230;DHT22;13960;50.860;4.352;2022-08-18T14:01:56;27.80;99.90
26230;DHT22;13960;50.860;4.352;2022-08-18T14:04:22;28.10;99.90
26230;DHT22;13960;50.860;4.352;2022-08-18T14:06:50;28.60;99.90
26230;DHT22;13960;50.860;4.352;2022-08-18T14:09:16;29.30;99.90
26230;DHT22;13960;50.860;4.352;2022-08-18T14:11:42;29.70;99.90
26230;DHT22;13960;50.860;4.352;2022-08-18T14:14:07;29.50;99.90
26230;DHT22;13960;50.860;4.352;2022-08-18T14:16:33;29.30;99.90
26230;DHT22;13960;50.860;4.352;2022-08-18T14:18:59;29.30;99.90
26230;DHT22;13960;50.860;4.352;2022-08-18T14:21:44;29.50;99.90
26230;DHT22;13960;50.860;4.352;2022-08-18T14:24:29;29.40;99.90
26230;DHT22;13960;50.860;4.352;2022-08-18T14:27:13;29.60;99.90
26230;DHT22;13960;50.860;4.352;2022-08-18T14:29:38;29.50;99.90
26230;DHT22;13960;50.860;4.352;2022-08-18T14:32:06;29.80;99.90
26230;DHT22;13960;50.860;4.352;2022-08-18T14:34:32;29.70;99.90
26230;DHT22;13960;50.860;4.352;2022-08-18T14:36:58;29.90;99.90
26230;DHT22;13960;50.860;4.352;2022-08-18T14:39:24;30.40;99.90
26230;DHT22;13960;50.860;4.352;2022-08-18T14:41:49;31.60;99.90
26230;DHT22;13960;50.860;4.352;2022-08-18T14:44:15;32.00;99.90
26230;DHT22;13960;50.860;4.352;2022-08-18T14:46:41;31.70;99.90
26230;DHT22;13960;50.860;4.352;2022-08-18T14:49:10;30.80;99.90
26230;DHT22;13960;50.860;4.352;2022-08-18T14:51:36;30.00;99.90
26230;DHT22;13960;50.860;4.352;2022-08-18T14:54:03;30.70;99.90
26230;DHT22;13960;50.860;4.352;2022-08-18T14:56:28;31.90;99.90
26230;DHT22;13960;50.860;4.352;2022-08-18T14:58:54;33.70;99.90
26230;DHT22;13960;50.860;4.352;2022-08-18T15:01:19;34.00;99.90
26230;DHT22;13960;50.860;4.352;2022-08-18T15:03:46;35.30;99.90
26230;DHT22;13960;50.860;4.352;2022-08-18T15:06:11;34.50;99.90
26230;DHT22;13960;50.860;4.352;2022-08-18T15:08:38;33.30;99.90
26230;DHT22;13960;50.860;4.352;2022-08-18T15:11:05;32.70;99.90
26230;DHT22;13960;50.860;4.352;2022-08-18T15:13:31;32.40;99.90
26230;DHT22;13960;50.860;4.352;2022-08-18T15:15:56;31.90;99.90
26230;DHT22;13960;50.860;4.352;2022-08-18T15:18:22;31.40;99.90
26230;DHT22;13960;50.860;4.352;2022-08-18T15:20:48;30.70;99.90
26230;DHT22;13960;50.860;4.352;2022-08-18T15:23:33;30.30;99.90
26230;DHT22;13960;50.860;4.352;2022-08-18T15:26:18;29.90;99.90
26230;DHT22;13960;50.860;4.352;2022-08-18T15:28:46;29.50;99.90
26230;DHT22;13960;50.860;4.352;2022-08-18T15:31:11;30.00;99.90
26230;DHT22;13960;50.860;4.352;2022-08-18T15:33:37;30.30;99.90
26230;DHT22;13960;50.860;4.352;2022-08-18T15:36:02;30.20;99.90
26230;DHT22;13960;50.860;4.352;2022-08-18T15:38:29;29.60;99.90
26230;DHT22;13960;50.860;4.352;2022-08-18T15:40:55;29.80;99.90
26230;DHT22;13960;50.860;4.352;2022-08-18T15:43:25;30.40;99.90
26230;DHT22;13960;50.860;4.352;2022-08-18T15:45:51;30.90;99.90
26230;DHT22;13960;50.860;4.352;2022-08-18T15:48:18;30.80;99.90
26230;DHT22;13960;50.860;4.352;2022-08-18T15:50:44;30.40;99.90
26230;DHT22;13960;50.860;4.352;2022-08-18T15:53:14;30.90;99.90
26230;DHT22;13960;50.860;4.352;2022-08-18T15:55:40;31.10;99.90
26230;DHT22;13960;50.860;4.352;2022-08-18T15:58:06;31.00;99.90
26230;DHT22;13960;50.860;4.352;2022-08-18T16:00:32;30.70;99.90
26230;DHT22;13960;50.860;4.352;2022-08-18T16:02:59;30.40;99.90
26230;DHT22;13960;50.860;4.352;2022-08-18T16:05:30;30.30;99.90
26230;DHT22;13960;50.860;4.352;2022-08-18T16:07:56;30.80;99.90
26230;DHT22;13960;50.860;4.352;2022-08-18T16:10:24;31.00;99.90
26230;DHT22;13960;50.860;4.352;2022-08-18T16:12:50;30.90;99.90
26230;DHT22;13960;50.860;4.352;2022-08-18T16:15:17;31.50;99.90
26230;DHT22;13960;50.860;4.352;2022-08-18T16:17:42;31.90;99.90
26230;DHT22;13960;50.860;4.352;2022-08-18T16:20:09;31.80;99.90
26230;DHT22;13960;50.860;4.352;2022-08-18T16:22:35;31.30;99.90
26230;DHT22;13960;50.860;4.352;2022-08-18T16:25:02;31.20;99.90
26230;DHT22;13960;50.860;4.352;2022-08-18T16:27:33;31.70;99.90
26230;DHT22;13960;50.860;4.352;2022-08-18T16:29:59;30.90;99.90
26230;DHT22;13960;50.860;4.352;2022-08-18T16:32:25;30.80;99.90
26230;DHT22;13960;50.860;4.352;2022-08-18T16:34:51;31.50;99.90
26230;DHT22;13960;50.860;4.352;2022-08-18T16:37:17;31.00;99.90
26230;DHT22;13960;50.860;4.352;2022-08-18T16:39:42;30.80;99.90
26230;DHT22;13960;50.860;4.352;2022-08-18T16:42:08;30.80;99.90
26230;DHT22;13960;50.860;4.352;2022-08-18T16:44:36;31.30;99.90
26230;DHT22;13960;50.860;4.352;2022-08-18T16:47:02;31.50;99.90
26230;DHT22;13960;50.860;4.352;2022-08-18T16:49:28;31.30;99.90
26230;DHT22;13960;50.860;4.352;2022-08-18T16:51:54;31.50;99.90
26230;DHT22;13960;50.860;4.352;2022-08-18T16:54:19;31.10;99.90
26230;DHT22;13960;50.860;4.352;2022-08-18T16:56:45;31.00;99.90
26230;DHT22;13960;50.860;4.352;2022-08-18T16:59:10;31.50;99.90
26230;DHT22;13960;50.860;4.352;2022-08-18T17:01:54;31.00;99.90
26230;DHT22;13960;50.860;4.352;2022-08-18T17:04:38;30.70;99.90
26230;DHT22;13960;50.860;4.352;2022-08-18T17:07:04;31.40;99.90
26230;DHT22;13960;50.860;4.352;2022-08-18T17:09:30;31.60;99.90
26230;DHT22;13960;50.860;4.352;2022-08-18T17:11:57;32.30;99.90
26230;DHT22;13960;50.860;4.352;2022-08-18T17:14:24;32.00;99.90
26230;DHT22;13960;50.860;4.352;2022-08-18T17:16:50;32.10;99.90
26230;DHT22;13960;50.860;4.352;2022-08-18T17:19:24;31.70;99.90
26230;DHT22;13960;50.860;4.352;2022-08-18T17:21:51;32.20;99.90
26230;DHT22;13960;50.860;4.352;2022-08-18T17:24:16;32.10;99.90
26230;DHT22;13960;50.860;4.352;2022-08-18T17:29:12;30.80;99.90
26230;DHT22;13960;50.860;4.352;2022-08-18T17:31:42;31.20;99.90
26230;DHT22;13960;50.860;4.352;2022-08-18T17:34:10;30.90;99.90
26230;DHT22;13960;50.860;4.352;2022-08-18T17:36:39;30.30;99.90
26230;DHT22;13960;50.860;4.352;2022-08-18T17:39:06;30.90;99.90
26230;DHT22;13960;50.860;4.352;2022-08-18T17:41:32;30.90;99.90
26230;DHT22;13960;50.860;4.352;2022-08-18T17:44:18;30.20;99.90
26230;DHT22;13960;50.860;4.352;2022-08-18T17:46:44;30.00;99.90
26230;DHT22;13960;50.860;4.352;2022-08-18T17:49:10;29.60;99.90
26230;DHT22;13960;50.860;4.352;2022-08-18T17:51:37;28.70;99.90
26230;DHT22;13960;50.860;4.352;2022-08-18T17:56:39;28.10;99.90
26230;DHT22;13960;50.860;4.352;2022-08-18T18:01:31;27.20;99.90
26230;DHT22;13960;50.860;4.352;2022-08-18T18:04:00;27.20;99.90
26230;DHT22;13960;50.860;4.352;2022-08-18T18:08:55;26.80;99.90